createdAt,value
2022-08-08T00:00:53.280Z,102376.41
2022-08-08T00:00:59.650Z,102373.94
2022-08-08T00:02:04.069Z,102382.00
2022-08-08T00:03:20.268Z,102377.03
2022-08-08T00:04:05.426Z,102370.66
2022-08-08T00:04:53.172Z,102371.91
2022-08-08T00:05:43.798Z,102370.69
2022-08-08T00:06:45.630Z,102368.03
2022-08-08T00:07:28.585Z,102368.50
2022-08-08T00:08:12.927Z,102364.41
2022-08-08T00:09:01.311Z,102367.69
2022-08-08T00:10:05.446Z,102373.94
2022-08-08T00:10:45.423Z,102371.41
2022-08-08T00:11:47.000Z,102371.06
2022-08-08T00:12:38.664Z,102376.84
2022-08-08T00:14:14.956Z,102373.88
2022-08-08T00:14:57.196Z,102373.59
2022-08-08T00:15:57.586Z,102383.00
2022-08-08T00:16:27.321Z,102383.19
2022-08-08T00:17:25.784Z,102371.28
2022-08-08T00:18:18.884Z,102374.44
2022-08-08T00:19:13.730Z,102376.66
2022-08-08T00:19:51.249Z,102382.91
2022-08-08T00:20:45.318Z,102376.34
2022-08-08T00:21:26.525Z,102379.97
2022-08-08T00:22:10.751Z,102380.72
2022-08-08T00:22:50.562Z,102378.31
2022-08-08T00:23:43.166Z,102376.56
2022-08-08T00:24:24.068Z,102381.22
2022-08-08T00:25:03.935Z,102377.66
2022-08-08T00:25:51.103Z,102378.75
2022-08-08T00:26:35.632Z,102377.34
2022-08-08T00:27:09.988Z,102377.69
2022-08-08T00:27:42.423Z,102379.19
2022-08-08T00:28:34.621Z,102377.16
2022-08-08T00:29:15.052Z,102380.09
2022-08-08T00:29:59.828Z,102372.69
2022-08-08T00:30:35.425Z,102377.28
2022-08-08T00:32:20.527Z,102375.91
2022-08-08T00:32:36.141Z,102370.41
2022-08-08T00:33:19.911Z,102374.97
2022-08-08T00:34:48.372Z,102371.28
2022-08-08T00:35:48.239Z,102364.44
2022-08-08T00:36:27.366Z,102376.28
2022-08-08T00:37:47.147Z,102369.91
2022-08-08T00:38:51.581Z,102369.19
2022-08-08T00:41:10.699Z,102371.53
2022-08-08T00:41:11.327Z,102369.91
2022-08-08T00:41:55.617Z,102362.28
2022-08-08T00:42:48.633Z,102363.72
2022-08-08T00:43:59.001Z,102367.41
2022-08-08T00:44:32.613Z,102364.75
2022-08-08T00:45:33.549Z,102363.91
2022-08-08T00:46:17.962Z,102372.00
2022-08-08T00:46:56.044Z,102361.72
2022-08-08T00:48:05.248Z,102365.19
2022-08-08T00:48:59.280Z,102362.53
2022-08-08T00:49:50.422Z,102360.16
2022-08-08T00:50:48.215Z,102358.41
2022-08-08T00:51:51.056Z,102358.19
2022-08-08T00:52:48.772Z,102360.78
2022-08-08T00:53:43.632Z,102358.16
2022-08-08T00:55:01.594Z,102356.34
2022-08-08T00:56:05.038Z,102352.19
2022-08-08T00:57:29.587Z,102353.59
2022-08-08T00:58:37.061Z,102345.31
2022-08-08T00:59:43.951Z,102356.50
2022-08-08T01:00:28.606Z,102347.53
2022-08-08T01:01:38.650Z,102352.84
2022-08-08T01:03:59.070Z,102354.63
2022-08-08T01:04:30.616Z,102353.31
2022-08-08T01:05:42.301Z,102357.38
2022-08-08T01:06:41.511Z,102353.97
2022-08-08T01:07:17.662Z,102357.28
2022-08-08T01:08:28.897Z,102356.91
2022-08-08T01:09:36.093Z,102354.44
2022-08-08T01:10:52.399Z,102352.59
2022-08-08T01:11:33.955Z,102357.47
2022-08-08T01:12:36.147Z,102355.91
2022-08-08T01:13:43.999Z,102358.22
2022-08-08T01:14:53.489Z,102355.44
2022-08-08T01:15:53.297Z,102362.78
2022-08-08T01:17:03.249Z,102352.13
2022-08-08T01:17:58.027Z,102357.38
2022-08-08T01:18:53.481Z,102360.59
2022-08-08T01:20:03.207Z,102358.81
2022-08-08T01:21:09.185Z,102367.59
2022-08-08T01:22:12.308Z,102368.06
2022-08-08T01:24:02.565Z,102359.88
2022-08-08T01:24:27.519Z,102361.72
2022-08-08T01:25:05.834Z,102373.09
2022-08-08T01:25:56.937Z,102368.97
2022-08-08T01:27:21.333Z,102369.97
2022-08-08T01:28:02.262Z,102365.84
2022-08-08T01:29:23.744Z,102361.34
2022-08-08T01:30:15.771Z,102366.41
2022-08-08T01:32:02.672Z,102360.78
2022-08-08T01:32:44.878Z,102370.00
2022-08-08T01:34:00.430Z,102357.00
2022-08-08T01:35:11.415Z,102362.09
2022-08-08T01:36:44.287Z,102361.34
2022-08-08T01:37:51.019Z,102359.13
2022-08-08T01:39:01.414Z,102359.03
2022-08-08T01:39:46.887Z,102362.00
2022-08-08T01:40:29.823Z,102356.00
2022-08-08T01:41:34.195Z,102357.75
2022-08-08T01:42:46.409Z,102366.84
2022-08-08T01:43:40.877Z,102359.38
2022-08-08T01:44:41.754Z,102361.59
2022-08-08T01:45:46.091Z,102367.56
2022-08-08T01:46:52.466Z,102362.69
2022-08-08T01:48:16.873Z,102364.00
2022-08-08T01:48:53.962Z,102362.78
2022-08-08T01:49:53.597Z,102362.34
2022-08-08T01:50:42.887Z,102360.59
2022-08-08T01:52:32.682Z,102366.25
2022-08-08T01:55:15.791Z,102371.38
2022-08-08T01:55:26.118Z,102368.06
2022-08-08T01:55:44.891Z,102359.34
2022-08-08T01:56:27.352Z,102362.09
2022-08-08T01:57:17.174Z,102358.59
2022-08-08T01:58:11.689Z,102365.88
2022-08-08T01:59:08.635Z,102366.00
2022-08-08T02:00:08.058Z,102361.56
2022-08-08T02:01:09.016Z,102366.78
2022-08-08T02:02:13.945Z,102360.44
2022-08-08T02:03:50.495Z,102354.28
2022-08-08T02:04:33.637Z,102360.56
2022-08-08T02:05:56.618Z,102361.31
2022-08-08T02:06:56.231Z,102360.66
2022-08-08T02:08:06.991Z,102357.78
2022-08-08T02:08:53.039Z,102355.94
2022-08-08T02:10:04.205Z,102354.81
2022-08-08T02:10:45.808Z,102354.13
2022-08-08T02:11:53.124Z,102349.63
2022-08-08T02:12:31.925Z,102354.84
2022-08-08T02:13:54.397Z,102353.56
2022-08-08T02:14:55.344Z,102349.94
2022-08-08T02:15:39.108Z,102346.97
2022-08-08T02:16:29.187Z,102348.66
2022-08-08T02:17:23.309Z,102350.53
2022-08-08T02:18:10.369Z,102343.09
2022-08-08T02:18:58.730Z,102339.41
2022-08-08T02:20:07.556Z,102345.75
2022-08-08T02:21:13.251Z,102345.09
2022-08-08T02:22:17.224Z,102347.09
2022-08-08T02:22:55.356Z,102343.44
2022-08-08T02:23:36.121Z,102346.28
2022-08-08T02:24:07.713Z,102349.13
2022-08-08T02:24:55.985Z,102358.09
2022-08-08T02:25:48.332Z,102347.47
2022-08-08T02:26:41.855Z,102344.38
2022-08-08T02:27:18.976Z,102348.72
2022-08-08T02:28:06.536Z,102349.34
2022-08-08T02:28:48.115Z,102351.97
2022-08-08T02:29:41.675Z,102345.63
2022-08-08T02:31:04.585Z,102347.03
2022-08-08T02:31:58.625Z,102344.66
2022-08-08T02:32:42.109Z,102350.47
2022-08-08T02:33:24.942Z,102349.78
2022-08-08T02:34:27.664Z,102355.31
2022-08-08T02:36:03.818Z,102354.94
2022-08-08T02:36:39.544Z,102359.44
2022-08-08T02:37:53.176Z,102359.34
2022-08-08T02:38:44.767Z,102357.69
2022-08-08T02:40:08.679Z,102354.50
2022-08-08T02:41:07.794Z,102353.97
2022-08-08T02:42:38.255Z,102357.41
2022-08-08T02:44:43.074Z,102362.09
2022-08-08T02:45:03.672Z,102362.56
2022-08-08T02:46:08.269Z,102359.25
2022-08-08T02:46:50.566Z,102352.00
2022-08-08T02:47:37.960Z,102353.44
2022-08-08T02:48:25.687Z,102356.88
2022-08-08T02:49:13.476Z,102360.19
2022-08-08T02:49:51.980Z,102356.69
2022-08-08T02:51:04.477Z,102357.63
2022-08-08T02:52:34.994Z,102367.16
2022-08-08T02:53:24.091Z,102362.25
2022-08-08T02:54:17.296Z,102364.63
2022-08-08T02:55:37.498Z,102357.13
2022-08-08T02:56:32.073Z,102365.06
2022-08-08T02:57:45.010Z,102366.34
2022-08-08T02:58:55.833Z,102360.06
2022-08-08T02:59:58.355Z,102362.38
2022-08-08T03:01:14.577Z,102369.06
2022-08-08T03:02:20.200Z,102367.06
2022-08-08T03:03:11.202Z,102366.69
2022-08-08T03:05:02.956Z,102365.81
2022-08-08T03:05:44.958Z,102365.41
2022-08-08T03:06:36.324Z,102367.06
2022-08-08T03:08:03.580Z,102367.88
2022-08-08T03:09:13.781Z,102371.56
2022-08-08T03:10:32.893Z,102370.47
2022-08-08T03:11:25.646Z,102361.94
2022-08-08T03:12:36.375Z,102364.09
2022-08-08T03:15:58.223Z,102364.56
2022-08-08T03:16:01.581Z,102361.47
2022-08-08T03:16:13.056Z,102372.25
2022-08-08T03:17:34.085Z,102364.22
2022-08-08T03:18:35.800Z,102366.41
2022-08-08T03:19:50.873Z,102359.81
2022-08-08T03:20:23.416Z,102365.63
2022-08-08T03:20:59.043Z,102363.75
2022-08-08T03:21:54.488Z,102369.38
2022-08-08T03:22:38.286Z,102369.00
2022-08-08T03:23:21.349Z,102366.59
2022-08-08T03:23:57.395Z,102373.09
2022-08-08T03:24:34.466Z,102380.78
2022-08-08T03:25:14.671Z,102370.84
2022-08-08T03:25:52.449Z,102374.75
2022-08-08T03:26:32.675Z,102376.22
2022-08-08T03:27:27.551Z,102373.22
2022-08-08T03:28:00.731Z,102370.84
2022-08-08T03:28:46.737Z,102370.53
2022-08-08T03:29:54.715Z,102377.72
2022-08-08T03:30:22.942Z,102376.47
2022-08-08T03:31:21.909Z,102374.88
2022-08-08T03:32:08.830Z,102373.84
2022-08-08T03:33:02.532Z,102381.97
2022-08-08T03:33:56.233Z,102383.75
2022-08-08T03:34:37.718Z,102381.28
2022-08-08T03:35:12.909Z,102378.63
2022-08-08T03:35:47.533Z,102378.44
2022-08-08T03:36:28.018Z,102378.78
2022-08-08T03:37:10.776Z,102387.25
2022-08-08T03:38:00.095Z,102380.47
2022-08-08T03:38:57.564Z,102386.81
2022-08-08T03:39:51.791Z,102380.00
2022-08-08T03:40:30.393Z,102375.56
2022-08-08T03:41:22.797Z,102389.22
2022-08-08T03:42:28.487Z,102387.16
2022-08-08T03:42:51.444Z,102377.47
2022-08-08T03:43:38.246Z,102381.13
2022-08-08T03:44:10.453Z,102384.81
2022-08-08T03:44:52.110Z,102382.03
2022-08-08T03:46:07.316Z,102379.25
2022-08-08T03:46:18.268Z,102385.53
2022-08-08T03:46:56.957Z,102390.38
2022-08-08T03:47:45.136Z,102381.66
2022-08-08T03:48:21.300Z,102379.44
2022-08-08T03:49:57.387Z,102385.78
2022-08-08T03:50:20.107Z,102382.88
2022-08-08T03:50:56.631Z,102382.03
2022-08-08T03:51:50.753Z,102391.69
2022-08-08T03:52:21.613Z,102380.66
2022-08-08T03:52:54.584Z,102381.31
2022-08-08T03:53:42.379Z,102385.38
2022-08-08T03:54:41.853Z,102388.19
2022-08-08T03:55:55.177Z,102388.22
2022-08-08T03:56:09.982Z,102387.94
2022-08-08T03:58:31.085Z,102382.63
2022-08-08T03:58:35.614Z,102380.91
2022-08-08T03:58:51.700Z,102388.50
2022-08-08T03:59:29.679Z,102384.09
2022-08-08T04:00:11.829Z,102390.25
2022-08-08T04:01:02.075Z,102387.91
2022-08-08T04:02:31.501Z,102394.53
2022-08-08T04:02:47.776Z,102390.97
2022-08-08T04:03:57.522Z,102389.78
2022-08-08T04:04:19.805Z,102393.09
2022-08-08T04:04:54.757Z,102394.19
2022-08-08T04:05:36.507Z,102394.94
2022-08-08T04:06:16.396Z,102390.38
2022-08-08T04:07:01.443Z,102390.50
2022-08-08T04:07:40.509Z,102397.13
2022-08-08T04:08:33.411Z,102397.75
2022-08-08T04:09:11.220Z,102393.56
2022-08-08T04:09:59.392Z,102392.28
2022-08-08T04:10:38.859Z,102399.25
2022-08-08T04:11:17.733Z,102397.25
2022-08-08T04:11:58.624Z,102398.31
2022-08-08T04:12:35.712Z,102399.50
2022-08-08T04:13:18.642Z,102399.50
2022-08-08T04:14:34.836Z,102403.16
2022-08-08T04:14:56.365Z,102401.03
2022-08-08T04:15:30.391Z,102398.56
2022-08-08T04:16:10.302Z,102405.44
2022-08-08T04:16:49.315Z,102405.94
2022-08-08T04:17:46.682Z,102398.59
2022-08-08T04:18:17.156Z,102405.44
2022-08-08T04:18:50.485Z,102404.81
2022-08-08T04:19:26.446Z,102398.84
2022-08-08T04:20:08.094Z,102404.50
2022-08-08T04:20:40.937Z,102393.22
2022-08-08T04:21:13.270Z,102398.88
2022-08-08T04:21:49.005Z,102406.41
2022-08-08T04:22:24.084Z,102397.88
2022-08-08T04:22:57.264Z,102406.88
2022-08-08T04:23:33.107Z,102401.53
2022-08-08T04:24:29.536Z,102404.06
2022-08-08T04:25:06.362Z,102402.22
2022-08-08T04:25:40.269Z,102404.53
2022-08-08T04:26:12.907Z,102402.84
2022-08-08T04:26:58.097Z,102406.47
2022-08-08T04:28:02.935Z,102413.44
2022-08-08T04:28:36.545Z,102412.19
2022-08-08T04:29:11.639Z,102411.16
2022-08-08T04:29:55.294Z,102413.47
2022-08-08T04:30:39.821Z,102411.34
2022-08-08T04:31:30.811Z,102407.09
2022-08-08T04:32:10.630Z,102408.38
2022-08-08T04:32:47.845Z,102412.41
2022-08-08T04:33:22.829Z,102416.09
2022-08-08T04:33:55.699Z,102417.06
2022-08-08T04:34:32.047Z,102414.75
2022-08-08T04:35:14.819Z,102411.78
2022-08-08T04:35:50.994Z,102402.78
2022-08-08T04:36:23.269Z,102406.00
2022-08-08T04:36:58.455Z,102410.13
2022-08-08T04:37:32.165Z,102409.50
2022-08-08T04:38:06.613Z,102406.81
2022-08-08T04:38:44.769Z,102417.13
2022-08-08T04:40:03.507Z,102410.97
2022-08-08T04:40:12.355Z,102408.94
2022-08-08T04:40:57.028Z,102410.44
2022-08-08T04:41:29.830Z,102410.06
2022-08-08T04:42:09.068Z,102410.03
2022-08-08T04:42:56.013Z,102408.50
2022-08-08T04:43:31.611Z,102418.22
2022-08-08T04:44:22.089Z,102414.03
2022-08-08T04:44:58.531Z,102423.16
2022-08-08T04:45:33.659Z,102413.00
2022-08-08T04:46:06.370Z,102415.00
2022-08-08T04:46:39.410Z,102421.41
2022-08-08T04:47:12.146Z,102417.63
2022-08-08T04:47:46.390Z,102422.13
2022-08-08T04:48:22.142Z,102419.16
2022-08-08T04:48:55.173Z,102429.22
2022-08-08T04:49:28.867Z,102421.28
2022-08-08T04:50:25.474Z,102429.22
2022-08-08T04:51:01.245Z,102435.78
2022-08-08T04:51:54.824Z,102433.94
2022-08-08T04:52:34.289Z,102436.25
2022-08-08T04:53:13.918Z,102428.03
2022-08-08T04:54:38.757Z,102436.66
2022-08-08T04:54:57.075Z,102428.16
2022-08-08T04:55:37.668Z,102429.69
2022-08-08T04:56:21.278Z,102434.97
2022-08-08T04:56:52.973Z,102436.91
2022-08-08T04:57:25.303Z,102439.13
2022-08-08T04:57:59.117Z,102438.44
2022-08-08T04:58:31.221Z,102446.72
2022-08-08T04:59:05.153Z,102439.81
2022-08-08T04:59:42.182Z,102436.59
2022-08-08T05:00:19.706Z,102433.81
2022-08-08T05:00:52.720Z,102433.75
2022-08-08T05:01:24.516Z,102434.41
2022-08-08T05:02:07.832Z,102431.19
2022-08-08T05:02:42.217Z,102439.28
2022-08-08T05:03:19.049Z,102443.59
2022-08-08T05:04:12.699Z,102438.72
2022-08-08T05:04:48.527Z,102440.00
2022-08-08T05:05:44.612Z,102441.53
2022-08-08T05:06:18.220Z,102442.63
2022-08-08T05:06:57.362Z,102441.69
2022-08-08T05:07:38.113Z,102438.66
2022-08-08T05:08:14.969Z,102436.25
2022-08-08T05:08:52.176Z,102434.69
2022-08-08T05:09:27.382Z,102445.19
2022-08-08T05:10:01.288Z,102440.88
2022-08-08T05:10:36.592Z,102440.09
2022-08-08T05:11:18.601Z,102441.75
2022-08-08T05:11:56.946Z,102442.22
2022-08-08T05:12:30.154Z,102446.72
2022-08-08T05:13:03.648Z,102447.94
2022-08-08T05:13:54.892Z,102452.13
2022-08-08T05:14:33.538Z,102449.78
2022-08-08T05:15:13.498Z,102441.38
2022-08-08T05:16:51.031Z,102448.13
2022-08-08T05:16:52.613Z,102446.34
2022-08-08T05:17:28.405Z,102446.91
2022-08-08T05:18:20.069Z,102439.81
2022-08-08T05:18:53.486Z,102434.47
2022-08-08T05:20:09.478Z,102442.03
2022-08-08T05:20:18.291Z,102444.81
2022-08-08T05:20:52.224Z,102446.59
2022-08-08T05:21:25.729Z,102443.50
2022-08-08T05:22:00.495Z,102447.63
2022-08-08T05:22:35.929Z,102441.06
2022-08-08T05:23:08.140Z,102444.66
2022-08-08T05:23:46.001Z,102438.38
2022-08-08T05:24:19.097Z,102437.56
2022-08-08T05:24:58.211Z,102438.25
2022-08-08T05:25:41.412Z,102436.84
2022-08-08T05:26:15.017Z,102437.47
2022-08-08T05:26:51.627Z,102441.25
2022-08-08T05:27:24.658Z,102442.78
2022-08-08T05:27:57.807Z,102446.16
2022-08-08T05:28:56.302Z,102446.53
2022-08-08T05:29:21.771Z,102445.13
2022-08-08T05:29:54.981Z,102438.00
2022-08-08T05:30:38.331Z,102450.03
2022-08-08T05:31:12.622Z,102441.03
2022-08-08T05:32:06.131Z,102438.22
2022-08-08T05:32:40.007Z,102446.38
2022-08-08T05:33:16.884Z,102442.84
2022-08-08T05:33:50.159Z,102439.00
2022-08-08T05:34:34.053Z,102443.09
2022-08-08T05:35:09.497Z,102442.34
2022-08-08T05:35:44.586Z,102438.44
2022-08-08T05:36:24.993Z,102442.13
2022-08-08T05:37:04.067Z,102435.47
2022-08-08T05:37:54.668Z,102443.34
2022-08-08T05:38:43.912Z,102445.00
2022-08-08T05:39:21.411Z,102446.00
2022-08-08T05:39:55.208Z,102449.28
2022-08-08T05:40:29.183Z,102446.06
2022-08-08T05:41:05.037Z,102451.88
2022-08-08T05:41:55.193Z,102449.25
2022-08-08T05:42:49.073Z,102450.72
2022-08-08T05:43:39.318Z,102448.69
2022-08-08T05:44:20.549Z,102453.69
2022-08-08T05:45:10.142Z,102448.31
2022-08-08T05:46:01.934Z,102445.88
2022-08-08T05:46:38.841Z,102452.94
2022-08-08T05:47:10.881Z,102444.28
2022-08-08T05:48:00.466Z,102451.91
2022-08-08T05:48:38.099Z,102448.50
2022-08-08T05:49:14.052Z,102447.47
2022-08-08T05:49:54.391Z,102446.44
2022-08-08T05:50:33.537Z,102449.78
2022-08-08T05:51:13.307Z,102450.59
2022-08-08T05:51:49.718Z,102452.13
2022-08-08T05:52:32.123Z,102444.72
2022-08-08T05:53:53.502Z,102444.50
2022-08-08T05:54:27.206Z,102451.22
2022-08-08T05:55:02.070Z,102443.59
2022-08-08T05:56:08.331Z,102449.94
2022-08-08T05:56:30.357Z,102445.78
2022-08-08T05:57:04.775Z,102440.63
2022-08-08T05:58:04.789Z,102439.16
2022-08-08T05:58:33.913Z,102442.88
2022-08-08T05:59:12.650Z,102436.06
2022-08-08T05:59:59.684Z,102437.94
2022-08-08T06:00:59.386Z,102428.63
2022-08-08T06:01:51.769Z,102428.84
2022-08-08T06:02:47.921Z,102432.69
2022-08-08T06:03:25.555Z,102427.22
2022-08-08T06:04:13.575Z,102428.09
2022-08-08T06:04:54.375Z,102430.91
2022-08-08T06:05:34.627Z,102426.97
2022-08-08T06:06:10.329Z,102419.84
2022-08-08T06:06:48.140Z,102427.63
2022-08-08T06:07:22.627Z,102423.13
2022-08-08T06:08:02.798Z,102424.22
2022-08-08T06:08:54.753Z,102436.84
2022-08-08T06:10:00.214Z,102433.28
2022-08-08T06:10:31.161Z,102428.00
2022-08-08T06:11:04.212Z,102428.03
2022-08-08T06:11:45.704Z,102434.00
2022-08-08T06:12:18.733Z,102425.84
2022-08-08T06:13:03.225Z,102426.34
2022-08-08T06:13:47.673Z,102420.84
2022-08-08T06:14:24.067Z,102418.59
2022-08-08T06:14:57.808Z,102420.75
2022-08-08T06:15:50.103Z,102417.47
2022-08-08T06:16:27.585Z,102424.19
2022-08-08T06:17:51.587Z,102418.63
2022-08-08T06:18:28.291Z,102422.59
2022-08-08T06:19:01.756Z,102428.16
2022-08-08T06:19:36.150Z,102429.22
2022-08-08T06:20:11.602Z,102429.19
2022-08-08T06:20:45.428Z,102419.16
2022-08-08T06:21:28.424Z,102425.44
2022-08-08T06:23:06.488Z,102432.41
2022-08-08T06:23:52.921Z,102425.41
2022-08-08T06:24:36.149Z,102426.09
2022-08-08T06:25:10.341Z,102428.09
2022-08-08T06:26:44.839Z,102427.88
2022-08-08T06:26:50.476Z,102426.22
2022-08-08T06:27:43.722Z,102435.66
2022-08-08T06:28:29.366Z,102435.94
2022-08-08T06:29:10.638Z,102434.56
2022-08-08T06:30:04.273Z,102434.16
2022-08-08T06:30:44.459Z,102433.69
2022-08-08T06:31:20.484Z,102434.03
2022-08-08T06:32:10.628Z,102440.56
2022-08-08T06:32:53.812Z,102431.81
2022-08-08T06:34:25.786Z,102435.66
2022-08-08T06:34:37.534Z,102433.19
2022-08-08T06:36:04.799Z,102434.28
2022-08-08T06:36:11.390Z,102436.50
2022-08-08T06:36:53.263Z,102439.41
2022-08-08T06:37:28.724Z,102437.06
2022-08-08T06:38:14.403Z,102429.59
2022-08-08T06:38:50.248Z,102436.69
2022-08-08T06:39:22.752Z,102434.88
2022-08-08T06:39:57.674Z,102440.56
2022-08-08T06:40:36.985Z,102432.75
2022-08-08T06:41:15.374Z,102436.13
2022-08-08T06:41:51.298Z,102436.09
2022-08-08T06:42:28.247Z,102433.41
2022-08-08T06:43:10.063Z,102435.59
2022-08-08T06:43:57.211Z,102434.22
2022-08-08T06:44:33.590Z,102443.13
2022-08-08T06:45:07.284Z,102436.34
2022-08-08T06:45:40.822Z,102447.16
2022-08-08T06:46:13.852Z,102444.31
2022-08-08T06:46:48.992Z,102440.47
2022-08-08T06:47:22.352Z,102447.84
2022-08-08T06:48:01.572Z,102439.53
2022-08-08T06:48:39.436Z,102440.75
2022-08-08T06:49:15.178Z,102444.63
2022-08-08T06:49:54.908Z,102446.28
2022-08-08T06:50:31.760Z,102442.69
2022-08-08T06:51:07.750Z,102446.38
2022-08-08T06:51:47.028Z,102441.63
2022-08-08T06:52:27.943Z,102444.75
2022-08-08T06:53:10.119Z,102440.66
2022-08-08T06:53:50.923Z,102455.22
2022-08-08T06:54:30.909Z,102442.34
2022-08-08T06:55:03.048Z,102447.00
2022-08-08T06:55:41.804Z,102445.53
2022-08-08T06:56:16.442Z,102442.25
2022-08-08T06:56:52.821Z,102446.75
2022-08-08T06:57:29.373Z,102441.63
2022-08-08T06:58:18.903Z,102454.63
2022-08-08T06:58:51.058Z,102446.34
2022-08-08T06:59:23.405Z,102442.38
2022-08-08T07:00:12.186Z,102448.44
2022-08-08T07:00:46.463Z,102453.28
2022-08-08T07:02:17.565Z,102448.78
2022-08-08T07:02:29.102Z,102448.03
2022-08-08T07:03:08.835Z,102444.72
2022-08-08T07:04:37.385Z,102448.94
2022-08-08T07:05:07.781Z,102447.75
2022-08-08T07:06:01.695Z,102444.19
2022-08-08T07:06:38.692Z,102446.34
2022-08-08T07:07:12.265Z,102447.63
2022-08-08T07:07:55.402Z,102448.97
2022-08-08T07:08:36.929Z,102453.53
2022-08-08T07:09:15.358Z,102449.22
2022-08-08T07:10:08.592Z,102451.88
2022-08-08T07:10:50.588Z,102449.63
2022-08-08T07:11:28.400Z,102454.88
2022-08-08T07:12:04.857Z,102457.91
2022-08-08T07:12:47.810Z,102461.44
2022-08-08T07:14:00.737Z,102442.97
2022-08-08T07:15:06.402Z,102449.19
2022-08-08T07:16:11.769Z,102449.22
2022-08-08T07:17:09.134Z,102457.84
2022-08-08T07:18:01.610Z,102449.75
2022-08-08T07:19:06.669Z,102449.63
2022-08-08T07:20:07.631Z,102447.41
2022-08-08T07:20:50.326Z,102443.75
2022-08-08T07:21:31.275Z,102446.53
2022-08-08T07:22:12.145Z,102455.47
2022-08-08T07:23:11.791Z,102454.34
2022-08-08T07:24:19.494Z,102448.72
2022-08-08T07:25:02.360Z,102454.03
2022-08-08T07:25:39.478Z,102447.50
2022-08-08T07:26:17.651Z,102446.75
2022-08-08T07:26:54.500Z,102448.19
2022-08-08T07:28:00.815Z,102461.88
2022-08-08T07:28:31.758Z,102458.09
2022-08-08T07:29:08.148Z,102454.78
2022-08-08T07:30:01.685Z,102461.63
2022-08-08T07:30:40.478Z,102457.69
2022-08-08T07:31:13.024Z,102466.69
2022-08-08T07:31:46.716Z,102459.72
2022-08-08T07:32:22.216Z,102457.50
2022-08-08T07:32:59.602Z,102459.84
2022-08-08T07:33:38.200Z,102455.69
2022-08-08T07:34:31.340Z,102446.56
2022-08-08T07:35:06.438Z,102451.00
2022-08-08T07:35:47.220Z,102456.97
2022-08-08T07:36:22.200Z,102455.38
2022-08-08T07:36:57.896Z,102453.81
2022-08-08T07:37:56.416Z,102451.91
2022-08-08T07:38:28.410Z,102452.13
2022-08-08T07:39:06.718Z,102455.75
2022-08-08T07:39:45.426Z,102448.63
2022-08-08T07:40:29.118Z,102463.00
2022-08-08T07:41:04.241Z,102461.16
2022-08-08T07:42:03.655Z,102454.94
2022-08-08T07:42:33.165Z,102455.81
2022-08-08T07:43:08.732Z,102453.41
2022-08-08T07:43:41.768Z,102448.59
2022-08-08T07:44:38.113Z,102453.03
2022-08-08T07:45:12.652Z,102456.38
2022-08-08T07:46:04.982Z,102454.22
2022-08-08T07:46:41.308Z,102455.75
2022-08-08T07:47:18.603Z,102455.78
2022-08-08T07:48:02.663Z,102457.19
2022-08-08T07:48:37.604Z,102466.00
2022-08-08T07:49:09.390Z,102460.44
2022-08-08T07:49:41.169Z,102457.91
2022-08-08T07:50:23.312Z,102460.53
2022-08-08T07:50:58.807Z,102465.34
2022-08-08T07:51:45.442Z,102462.06
2022-08-08T07:52:26.860Z,102471.78
2022-08-08T07:53:13.054Z,102465.34
2022-08-08T07:54:26.972Z,102462.72
2022-08-08T07:55:05.398Z,102463.75
2022-08-08T07:55:39.123Z,102464.91
2022-08-08T07:56:13.316Z,102462.38
2022-08-08T07:56:59.868Z,102459.94
2022-08-08T07:57:48.166Z,102461.47
2022-08-08T07:58:29.435Z,102455.94
2022-08-08T07:59:04.575Z,102456.53
2022-08-08T07:59:59.995Z,102456.44
2022-08-08T08:01:00.026Z,102463.09
2022-08-08T08:02:33.118Z,102465.19
2022-08-08T08:02:33.508Z,102463.03
2022-08-08T08:03:20.885Z,102454.38
2022-08-08T08:04:14.500Z,102476.34
2022-08-08T08:04:53.456Z,102456.47
2022-08-08T08:05:33.617Z,102465.19
2022-08-08T08:06:09.652Z,102468.28
2022-08-08T08:06:47.357Z,102468.06
2022-08-08T08:07:25.910Z,102471.44
2022-08-08T08:08:07.165Z,102465.34
2022-08-08T08:08:52.237Z,102467.59
2022-08-08T08:09:33.106Z,102472.25
2022-08-08T08:10:12.349Z,102465.19
2022-08-08T08:10:49.395Z,102463.91
2022-08-08T08:11:38.211Z,102463.78
2022-08-08T08:12:31.439Z,102468.56
2022-08-08T08:13:43.044Z,102471.38
2022-08-08T08:14:24.056Z,102479.66
2022-08-08T08:15:06.798Z,102480.03
2022-08-08T08:15:41.316Z,102481.78
2022-08-08T08:16:20.519Z,102475.91
2022-08-08T08:16:59.681Z,102475.28
2022-08-08T08:17:47.780Z,102470.56
2022-08-08T08:18:31.714Z,102467.75
2022-08-08T08:19:06.908Z,102474.28
2022-08-08T08:19:45.925Z,102472.63
2022-08-08T08:20:30.124Z,102472.75
2022-08-08T08:21:13.282Z,102480.38
2022-08-08T08:21:57.886Z,102475.38
2022-08-08T08:22:40.021Z,102477.13
2022-08-08T08:23:14.592Z,102473.78
2022-08-08T08:23:51.151Z,102476.28
2022-08-08T08:24:26.691Z,102473.03
2022-08-08T08:25:08.024Z,102474.66
2022-08-08T08:25:45.930Z,102480.78
2022-08-08T08:26:27.636Z,102483.03
2022-08-08T08:27:02.867Z,102464.50
2022-08-08T08:27:36.380Z,102476.53
2022-08-08T08:28:09.259Z,102483.34
2022-08-08T08:28:41.486Z,102480.38
2022-08-08T08:29:16.733Z,102479.38
2022-08-08T08:29:53.166Z,102479.25
2022-08-08T08:30:27.666Z,102469.38
2022-08-08T08:31:04.639Z,102473.88
2022-08-08T08:31:42.273Z,102475.59
2022-08-08T08:32:31.597Z,102479.72
2022-08-08T08:33:11.139Z,102481.59
2022-08-08T08:33:44.156Z,102474.59
2022-08-08T08:34:22.383Z,102472.63
2022-08-08T08:34:55.565Z,102480.56
2022-08-08T08:35:29.837Z,102467.28
2022-08-08T08:36:26.349Z,102470.06
2022-08-08T08:36:58.496Z,102470.44
2022-08-08T08:37:31.124Z,102472.28
2022-08-08T08:38:17.246Z,102467.34
2022-08-08T08:38:52.984Z,102474.69
2022-08-08T08:40:00.232Z,102469.81
2022-08-08T08:40:22.902Z,102482.28
2022-08-08T08:40:57.361Z,102482.47
2022-08-08T08:41:31.038Z,102470.44
2022-08-08T08:42:03.373Z,102473.34
2022-08-08T08:42:36.668Z,102477.47
2022-08-08T08:43:16.966Z,102469.78
2022-08-08T08:43:50.016Z,102478.75
2022-08-08T08:44:22.245Z,102477.31
2022-08-08T08:45:02.222Z,102469.66
2022-08-08T08:45:57.755Z,102474.78
2022-08-08T08:46:30.933Z,102467.91
2022-08-08T08:47:03.953Z,102467.81
2022-08-08T08:47:43.894Z,102465.34
2022-08-08T08:48:19.223Z,102479.53
2022-08-08T08:48:54.360Z,102474.56
2022-08-08T08:49:30.633Z,102474.50
2022-08-08T08:50:06.613Z,102472.88
2022-08-08T08:50:52.154Z,102470.38
2022-08-08T08:51:27.032Z,102477.03
2022-08-08T08:52:06.031Z,102480.69
2022-08-08T08:52:57.481Z,102479.16
2022-08-08T08:53:55.229Z,102474.19
2022-08-08T08:54:34.476Z,102473.66
2022-08-08T08:55:08.270Z,102472.91
2022-08-08T08:55:44.433Z,102473.28